Time;durP1;ratioP1;P1;durP2;ratioP2;P2;SDS_P1;SDS_P2;PMS_P1;PMS_P2;Temp;Humidity;BMP_temperature;BMP_pressure;BME280_temperature;BME280_humidity;BME280_pressure;Samples;Min_cycle;Max_cycle;Signal;HPM_P1;HPM_P2
2022/05/20 00:00:52;;;;;;;3.35;2.00;;;20.80;60.50;;;;;;5051423;28;20028;-65
2022/05/20 00:03:18;;;;;;;3.00;1.70;;;20.70;60.60;;;;;;5047815;28;20041;-67
2022/05/20 00:05:44;;;;;;;2.60;1.90;;;20.60;60.60;;;;;;5051542;28;20636;-66
2022/05/20 00:08:09;;;;;;;2.03;1.92;;;20.60;60.80;;;;;;5049019;28;20523;-66
2022/05/20 00:10:35;;;;;;;1.95;1.85;;;20.50;60.60;;;;;;5047297;28;20587;-64
2022/05/20 00:13:01;;;;;;;2.10;1.90;;;20.40;60.80;;;;;;5051758;28;20116;-67
2022/05/20 00:15:28;;;;;;;3.47;1.83;;;20.40;61.10;;;;;;5052362;28;20503;-66
2022/05/20 00:17:55;;;;;;;1.90;1.80;;;20.40;61.40;;;;;;5050766;28;20033;-67
2022/05/20 00:20:23;;;;;;;2.15;1.98;;;20.40;61.70;;;;;;5049644;28;20070;-67
2022/05/20 00:22:49;;;;;;;2.30;2.00;;;20.40;61.70;;;;;;5049881;28;20053;-66
2022/05/20 00:28:02;;;;;;;1.98;1.88;;;20.30;61.90;;;;;;5049014;28;20554;-67
2022/05/20 00:30:29;;;;;;;2.05;1.92;;;20.30;61.90;;;;;;5046299;28;20121;-66
2022/05/20 00:32:54;;;;;;;6.25;1.85;;;20.30;61.60;;;;;;5064131;28;20043;-67
2022/05/20 00:35:22;;;;;;;2.15;1.95;;;20.20;61.50;;;;;;5050950;28;20500;-67
2022/05/20 00:37:47;;;;;;;2.35;2.15;;;20.20;61.90;;;;;;5051102;28;20120;-66
2022/05/20 00:40:16;;;;;;;2.08;1.98;;;20.20;61.90;;;;;;5047684;28;20123;-67
2022/05/20 00:42:42;;;;;;;2.20;2.00;;;20.20;62.30;;;;;;5049740;28;20031;-67
2022/05/20 00:45:10;;;;;;;2.22;2.03;;;20.20;62.40;;;;;;5049533;28;20029;-66
2022/05/20 00:47:36;;;;;;;2.05;1.90;;;20.10;62.40;;;;;;5050829;28;20032;-66
2022/05/20 00:50:07;;;;;;;3.28;2.10;;;20.10;63.30;;;;;;5049137;28;20048;-66
2022/05/20 00:52:36;;;;;;;2.20;2.00;;;20.00;62.90;;;;;;5044152;28;20496;-67
2022/05/20 00:55:09;;;;;;;3.42;1.90;;;19.90;62.90;;;;;;5046647;28;20029;-66
2022/05/20 00:57:39;;;;;;;2.58;2.00;;;19.80;63.60;;;;;;5047882;28;20186;-66
2022/05/20 01:00:05;;;;;;;2.20;2.00;;;19.80;63.60;;;;;;5047357;28;20064;-67
2022/05/20 01:02:33;;;;;;;2.30;2.10;;;19.70;63.70;;;;;;5050783;28;20072;-66
2022/05/20 01:05:00;;;;;;;3.42;2.03;;;19.70;64.10;;;;;;5052170;28;20664;-66
2022/05/20 01:07:29;;;;;;;2.30;2.10;;;19.60;64.10;;;;;;5054281;28;20272;-67
2022/05/20 01:09:55;;;;;;;2.78;2.50;;;19.60;64.50;;;;;;5047722;28;20036;-66
2022/05/20 01:12:24;;;;;;;3.88;2.60;;;19.50;64.50;;;;;;5046047;28;20055;-67
2022/05/20 01:14:50;;;;;;;3.75;2.60;;;19.40;64.60;;;;;;5049042;28;20108;-66
2022/05/20 01:17:16;;;;;;;4.05;2.55;;;19.40;64.80;;;;;;5048347;28;20672;-67
2022/05/20 01:19:55;;;;;;;3.22;2.40;;;19.30;65.20;;;;;;5048893;28;20037;-67
2022/05/20 01:22:48;;;;;;;2.80;2.40;;;19.20;67.00;;;;;;5047993;28;20039;-67
2022/05/20 01:25:15;;;;;;;2.25;2.15;;;19.20;66.40;;;;;;5049132;28;20045;-67
2022/05/20 01:27:42;;;;;;;2.70;2.50;;;19.20;65.30;;;;;;5048814;28;20136;-65
2022/05/20 01:30:11;;;;;;;2.85;2.63;;;19.30;65.70;;;;;;5047377;28;20404;-66
2022/05/20 01:32:37;;;;;;;2.72;2.53;;;19.30;65.90;;;;;;5049049;28;20524;-66
2022/05/20 01:35:05;;;;;;;2.65;2.45;;;19.30;66.00;;;;;;5048873;28;20078;-66
2022/05/20 01:37:30;;;;;;;4.45;2.83;;;19.20;66.00;;;;;;5048414;28;20036;-66
2022/05/20 01:39:59;;;;;;;2.60;2.40;;;19.20;66.10;;;;;;5047862;28;20033;-67
2022/05/20 01:42:44;;;;;;;2.90;2.60;;;19.20;66.20;;;;;;5045814;28;20037;-67
2022/05/20 01:45:12;;;;;;;;;;;19.20;67.00;;;;;;5048109;28;20029;-67
2022/05/20 01:48:02;;;;;;;4.68;2.40;;;19.30;65.90;;;;;;5048654;28;19948;-67
2022/05/20 01:50:31;;;;;;;2.75;2.55;;;19.20;66.40;;;;;;5046981;28;20033;-66
2022/05/20 01:53:02;;;;;;;2.72;2.53;;;19.20;65.90;;;;;;5045581;28;20533;-67
2022/05/20 01:55:47;;;;;;;2.72;2.53;;;19.30;66.00;;;;;;5054710;28;20082;-66
2022/05/20 01:58:25;;;;;;;2.80;2.60;;;19.30;66.90;;;;;;5046512;28;20029;-65
2022/05/20 02:00:55;;;;;;;3.67;2.65;;;19.30;66.60;;;;;;5047971;28;20029;-67
2022/05/20 02:03:49;;;;;;;3.55;2.63;;;19.30;66.00;;;;;;5043994;28;20029;-67
2022/05/20 02:06:24;;;;;;;2.70;2.50;;;19.40;66.60;;;;;;5048291;28;20082;-67
2022/05/20 02:09:11;;;;;;;2.53;2.28;;;19.40;66.50;;;;;;5044524;28;20087;-67
2022/05/20 02:11:47;;;;;;;3.03;2.45;;;19.40;66.20;;;;;;5044150;28;20033;-66
2022/05/20 02:14:16;;;;;;;3.03;2.58;;;19.40;66.00;;;;;;5047473;28;20351;-66
2022/05/20 02:16:47;;;;;;;3.55;2.38;;;19.40;66.30;;;;;;5049220;28;20247;-67
2022/05/20 02:19:24;;;;;;;3.90;2.53;;;19.40;66.40;;;;;;5045402;28;20164;-67
2022/05/20 02:21:54;;;;;;;2.55;2.35;;;19.40;66.00;;;;;;5048292;28;20378;-66
2022/05/20 02:24:24;;;;;;;3.45;2.60;;;19.40;66.10;;;;;;5047053;28;20044;-65
2022/05/20 02:26:55;;;;;;;2.70;2.50;;;19.40;66.10;;;;;;5046506;28;20124;-67
2022/05/20 02:29:27;;;;;;;2.72;2.53;;;19.40;66.30;;;;;;5044188;28;20165;-66
2022/05/20 02:32:08;;;;;;;3.20;2.67;;;19.40;66.10;;;;;;5051041;28;20039;-66
2022/05/20 02:34:34;;;;;;;4.22;2.70;;;19.40;66.60;;;;;;5049645;28;20127;-66
2022/05/20 02:37:14;;;;;;;2.85;2.65;;;19.30;66.10;;;;;;5050343;28;20116;-66
2022/05/20 02:39:39;;;;;;;5.07;2.58;;;19.20;66.30;;;;;;5047840;28;20588;-66
2022/05/20 02:42:05;;;;;;;3.42;2.80;;;19.20;66.20;;;;;;5046201;28;20136;-66
2022/05/20 02:44:30;;;;;;;3.13;2.78;;;19.10;66.30;;;;;;5042260;28;20036;-67
2022/05/20 02:46:56;;;;;;;3.92;2.97;;;19.10;66.60;;;;;;5052129;28;20041;-66
2022/05/20 02:49:21;;;;;;;2.63;2.40;;;19.00;66.60;;;;;;5048126;28;20052;-66
2022/05/20 02:51:47;;;;;;;4.72;2.97;;;18.90;66.70;;;;;;5045439;28;20122;-66
2022/05/20 02:54:13;;;;;;;2.97;2.67;;;18.80;66.80;;;;;;5048614;28;20032;-66
2022/05/20 02:56:38;;;;;;;3.42;2.92;;;18.80;67.30;;;;;;5048653;28;20415;-66
2022/05/20 03:04:32;;;;;;;3.87;2.97;;;18.60;67.40;;;;;;5053154;28;20047;-67
2022/05/20 03:06:58;;;;;;;3.15;2.90;;;18.60;67.50;;;;;;5052114;28;20523;-67
2022/05/20 03:09:25;;;;;;;4.47;3.08;;;18.50;67.70;;;;;;5048739;28;20044;-67
2022/05/20 03:11:51;;;;;;;3.20;2.95;;;18.40;68.00;;;;;;5048407;28;20057;-67
2022/05/20 03:14:20;;;;;;;3.00;2.80;;;18.40;68.30;;;;;;5048529;28;20035;-67
2022/05/20 03:16:46;;;;;;;3.42;3.13;;;18.30;69.50;;;;;;5052524;28;20053;-67
2022/05/20 03:19:12;;;;;;;3.35;3.05;;;18.30;68.60;;;;;;5052834;28;20411;-67
2022/05/20 03:21:39;;;;;;;2.88;2.60;;;18.20;68.80;;;;;;5052521;28;20116;-67
2022/05/20 03:24:06;;;;;;;2.83;2.63;;;18.20;68.90;;;;;;5053873;28;20030;-67
2022/05/20 03:26:32;;;;;;;5.70;3.17;;;18.10;69.20;;;;;;5050205;28;20029;-67
2022/05/20 03:28:59;;;;;;;3.67;3.30;;;18.10;69.30;;;;;;5049743;28;20107;-66
2022/05/20 03:31:26;;;;;;;3.45;3.15;;;18.10;69.60;;;;;;5050673;28;20029;-66
2022/05/20 03:33:52;;;;;;;3.13;2.80;;;18.00;69.70;;;;;;5052268;28;20028;-66
2022/05/20 03:36:18;;;;;;;5.72;3.10;;;18.00;69.80;;;;;;5051116;28;20415;-67
2022/05/20 03:38:44;;;;;;;4.43;2.92;;;18.00;69.90;;;;;;5051742;28;20033;-67
2022/05/20 03:41:10;;;;;;;3.10;2.90;;;18.00;69.90;;;;;;5050856;28;20296;-67
2022/05/20 03:43:37;;;;;;;3.60;2.88;;;17.90;69.90;;;;;;5051773;28;20499;-66
2022/05/20 03:46:03;;;;;;;6.35;3.25;;;17.90;70.00;;;;;;5050428;28;20032;-67
2022/05/20 03:48:29;;;;;;;6.55;2.97;;;17.90;70.30;;;;;;5050142;28;20037;-67
2022/05/20 03:50:55;;;;;;;3.42;3.13;;;17.90;70.40;;;;;;5050140;28;20510;-67
2022/05/20 03:53:21;;;;;;;5.45;2.90;;;17.90;70.60;;;;;;5045715;28;20046;-64
2022/05/20 03:55:46;;;;;;;4.25;3.08;;;17.90;70.60;;;;;;5052084;28;20397;-67
2022/05/20 03:58:12;;;;;;;4.82;2.88;;;17.80;70.60;;;;;;5050272;28;20079;-66
2022/05/20 04:03:26;;;;;;;4.57;3.33;;;17.80;71.10;;;;;;5048756;28;20075;-67
2022/05/20 04:05:54;;;;;;;4.15;3.28;;;17.70;71.10;;;;;;5050354;28;20040;-67
2022/05/20 04:08:19;;;;;;;3.63;3.30;;;17.80;71.30;;;;;;5050626;28;20052;-66
2022/05/20 04:10:45;;;;;;;4.03;3.00;;;17.80;71.40;;;;;;5047392;28;20068;-67
2022/05/20 04:13:11;;;;;;;5.57;3.40;;;17.80;71.60;;;;;;5050001;28;20465;-66
2022/05/20 04:15:36;;;;;;;3.67;3.30;;;17.80;71.80;;;;;;5046222;28;20080;-67
2022/05/20 04:18:02;;;;;;;4.07;3.10;;;17.80;71.90;;;;;;5051001;28;20036;-66
2022/05/20 04:20:28;;;;;;;3.22;2.92;;;17.90;72.10;;;;;;5052702;28;20090;-67
2022/05/20 04:22:54;;;;;;;5.18;3.10;;;17.90;72.00;;;;;;5046731;28;20449;-66
2022/05/20 04:25:19;;;;;;;3.42;3.13;;;17.90;72.00;;;;;;5046594;28;20062;-66
2022/05/20 04:27:45;;;;;;;4.25;3.22;;;18.00;71.90;;;;;;5049977;28;20381;-66
2022/05/20 04:30:12;;;;;;;4.28;3.33;;;18.00;72.10;;;;;;5057200;28;20040;-67
2022/05/20 04:32:37;;;;;;;3.60;3.28;;;18.00;72.00;;;;;;5055764;28;20439;-66
2022/05/20 04:35:03;;;;;;;5.05;3.72;;;18.10;72.00;;;;;;5051559;28;20056;-67
2022/05/20 04:37:29;;;;;;;3.70;3.40;;;18.10;72.00;;;;;;5052965;28;20482;-67
2022/05/20 04:39:54;;;;;;;6.63;3.90;;;18.20;72.00;;;;;;5052915;28;20032;-66
2022/05/20 04:47:51;;;;;;;5.43;3.88;;;18.30;72.10;;;;;;5052331;28;20051;-67
2022/05/20 04:50:16;;;;;;;6.25;3.95;;;18.40;72.00;;;;;;5054212;28;20040;-67
2022/05/20 04:52:42;;;;;;;4.07;3.65;;;18.40;72.10;;;;;;5053047;28;20041;-66
2022/05/20 04:55:08;;;;;;;5.97;3.88;;;18.50;72.10;;;;;;5052295;28;20453;-64
2022/05/20 04:57:47;;;;;;;4.95;3.35;;;18.50;72.30;;;;;;5053571;28;20147;-66
2022/05/20 05:00:15;;;;;;;5.53;3.85;;;18.60;73.10;;;;;;5071336;28;20392;-67
2022/05/20 05:02:41;;;;;;;5.43;4.00;;;18.60;72.20;;;;;;5052556;28;20033;-67
2022/05/20 05:05:09;;;;;;;4.28;3.35;;;18.70;72.10;;;;;;5052688;28;20044;-66
2022/05/20 05:07:40;;;;;;;5.15;4.05;;;18.70;72.20;;;;;;5059316;28;20036;-67
2022/05/20 05:10:08;;;;;;;4.75;3.95;;;18.70;72.70;;;;;;5056861;28;20037;-66
2022/05/20 05:12:34;;;;;;;5.00;4.30;;;18.70;72.50;;;;;;5049755;28;20029;-66
2022/05/20 05:14:59;;;;;;;4.30;3.72;;;18.80;72.40;;;;;;5052921;28;20035;-66
2022/05/20 05:20:17;;;;;;;6.60;4.13;;;18.80;72.10;;;;;;5053978;28;20112;-67
2022/05/20 05:22:43;;;;;;;8.90;3.83;;;18.90;72.20;;;;;;5055537;28;20187;-67
2022/05/20 05:25:11;;;;;;;10.60;4.07;;;18.90;72.00;;;;;;5049209;28;20591;-67
2022/05/20 05:27:37;;;;;;;5.57;3.78;;;19.00;72.00;;;;;;5054784;28;20051;-66
2022/05/20 05:30:04;;;;;;;7.50;3.78;;;19.00;71.90;;;;;;5054211;28;20039;-66
2022/05/20 05:32:30;;;;;;;8.65;4.00;;;19.10;72.00;;;;;;5053497;28;20033;-67
2022/05/20 05:34:55;;;;;;;14.95;3.90;;;19.20;72.10;;;;;;5051129;28;20403;-66
2022/05/20 05:37:21;;;;;;;17.30;4.75;;;19.20;71.80;;;;;;5050642;28;20029;-67
2022/05/20 05:39:46;;;;;;;21.45;4.80;;;19.30;71.80;;;;;;5053914;28;20037;-64
2022/05/20 05:42:12;;;;;;;26.45;4.75;;;19.30;71.70;;;;;;5055400;28;20039;-66
2022/05/20 05:44:38;;;;;;;19.17;4.47;;;19.30;71.50;;;;;;5054746;28;20047;-67
2022/05/20 05:47:04;;;;;;;30.27;4.80;;;19.40;71.40;;;;;;5048108;28;20411;-66
2022/05/20 05:49:30;;;;;;;16.33;3.80;;;19.40;71.10;;;;;;5052470;28;20033;-67
2022/05/20 05:51:56;;;;;;;21.27;4.65;;;19.50;71.30;;;;;;5051599;28;20371;-66
2022/05/20 05:54:22;;;;;;;16.17;3.83;;;19.50;71.70;;;;;;5054079;28;20131;-67
2022/05/20 05:56:49;;;;;;;9.88;4.05;;;19.60;71.70;;;;;;5052818;28;20562;-67
2022/05/20 05:59:14;;;;;;;7.20;4.35;;;19.70;71.50;;;;;;5055050;28;20067;-67
2022/05/20 06:01:40;;;;;;;6.88;4.70;;;19.70;71.70;;;;;;5054243;28;20037;-67
2022/05/20 06:04:06;;;;;;;5.07;4.57;;;19.80;71.50;;;;;;5050453;28;20150;-66
2022/05/20 06:06:31;;;;;;;5.35;3.97;;;19.80;71.30;;;;;;5051590;28;20056;-66
2022/05/20 06:08:57;;;;;;;4.20;3.83;;;19.90;71.20;;;;;;5053548;28;20032;-66
2022/05/20 06:11:23;;;;;;;4.75;3.65;;;19.90;71.10;;;;;;5054540;28;20035;-67
2022/05/20 06:13:49;;;;;;;3.67;3.28;;;20.00;71.20;;;;;;5054169;28;20492;-65
2022/05/20 06:16:19;;;;;;;4.15;3.50;;;20.00;70.90;;;;;;5051811;28;20066;-66
2022/05/20 06:18:45;;;;;;;7.57;3.80;;;20.10;70.90;;;;;;5048869;28;20093;-66
2022/05/20 06:21:11;;;;;;;5.35;3.70;;;20.20;71.10;;;;;;5053840;28;20124;-66
2022/05/20 06:23:36;;;;;;;3.85;3.50;;;20.30;70.60;;;;;;5055658;28;20029;-66
2022/05/20 06:26:02;;;;;;;4.32;3.42;;;20.40;70.30;;;;;;5050527;28;20507;-65
2022/05/20 06:28:30;;;;;;;3.90;3.10;;;20.50;70.10;;;;;;5058291;28;20407;-66
2022/05/20 06:30:56;;;;;;;3.63;3.03;;;20.60;69.90;;;;;;5055247;28;20040;-66
2022/05/20 06:33:21;;;;;;;4.53;3.10;;;20.70;69.60;;;;;;5057170;28;21048;-67
2022/05/20 06:41:15;;;;;;;4.65;3.50;;;20.90;68.80;;;;;;5057775;28;20035;-66
2022/05/20 06:43:41;;;;;;;7.35;2.95;;;21.00;68.80;;;;;;5058021;28;20450;-67
2022/05/20 06:46:07;;;;;;;6.22;2.70;;;21.20;68.90;;;;;;5054678;28;20040;-66
2022/05/20 06:48:40;;;;;;;8.68;2.65;;;21.20;68.90;;;;;;5056167;28;20024;-66
2022/05/20 06:51:07;;;;;;;5.90;3.30;;;21.30;68.70;;;;;;5063006;28;20029;-66
2022/05/20 06:53:33;;;;;;;5.00;2.63;;;21.40;68.50;;;;;;5055698;28;20048;-66
2022/05/20 06:55:59;;;;;;;5.25;2.60;;;21.50;68.50;;;;;;5056532;28;20068;-66
2022/05/20 06:58:25;;;;;;;5.20;2.50;;;21.70;68.60;;;;;;5056858;28;20061;-66
2022/05/20 07:00:50;;;;;;;4.28;2.60;;;21.80;68.20;;;;;;5057349;28;20029;-67
2022/05/20 07:03:19;;;;;;;4.95;2.50;;;21.90;67.80;;;;;;5056589;28;20037;-67
2022/05/20 07:05:45;;;;;;;2.78;2.45;;;22.00;67.10;;;;;;5055706;28;20067;-67
2022/05/20 07:08:11;;;;;;;5.97;2.55;;;22.10;67.30;;;;;;5054062;28;20040;-66
2022/05/20 07:10:37;;;;;;;8.48;2.95;;;22.20;66.70;;;;;;5053652;28;20032;-67
2022/05/20 07:13:02;;;;;;;5.10;2.72;;;22.30;66.70;;;;;;5056713;28;20112;-67
2022/05/20 07:15:28;;;;;;;7.20;3.00;;;22.40;66.20;;;;;;5057298;28;20398;-66
2022/05/20 07:17:54;;;;;;;14.85;2.92;;;22.50;66.10;;;;;;5060238;28;20037;-67
2022/05/20 07:20:19;;;;;;;10.93;2.75;;;22.60;65.70;;;;;;5053045;28;20079;-66
2022/05/20 07:22:45;;;;;;;3.65;2.45;;;22.70;65.60;;;;;;5051435;28;20033;-67
2022/05/20 07:25:11;;;;;;;9.55;3.10;;;22.80;65.30;;;;;;5055380;28;20044;-67
2022/05/20 07:27:37;;;;;;;8.60;2.80;;;22.90;65.00;;;;;;5053520;28;20037;-67
2022/05/20 07:30:03;;;;;;;3.47;2.45;;;23.00;64.80;;;;;;5056154;28;20029;-67
2022/05/20 07:32:29;;;;;;;2.97;2.40;;;23.10;64.40;;;;;;5053628;28;20029;-67
2022/05/20 07:34:55;;;;;;;8.30;2.60;;;23.20;64.20;;;;;;5055287;28;20079;-66
2022/05/20 07:37:20;;;;;;;6.28;2.50;;;23.30;64.20;;;;;;5052423;28;20128;-67
2022/05/20 07:39:46;;;;;;;4.40;2.30;;;23.40;63.60;;;;;;5053730;28;20033;-67
2022/05/20 07:42:13;;;;;;;9.80;2.33;;;23.50;63.60;;;;;;5054324;28;20450;-66
2022/05/20 07:44:41;;;;;;;2.53;2.13;;;23.60;63.30;;;;;;5055979;28;20621;-67
2022/05/20 07:47:07;;;;;;;3.15;2.00;;;23.70;62.70;;;;;;5054782;28;20082;-66
2022/05/20 07:49:33;;;;;;;3.60;1.98;;;23.80;61.90;;;;;;5055296;28;20115;-67
2022/05/20 07:52:02;;;;;;;4.13;1.85;;;24.00;61.20;;;;;;5051683;28;20124;-66
2022/05/20 07:54:36;;;;;;;5.55;1.90;;;24.10;60.60;;;;;;5052122;28;20061;-67
2022/05/20 07:57:07;;;;;;;5.32;1.90;;;24.10;60.30;;;;;;5055512;28;20064;-67
2022/05/20 07:59:44;;;;;;;5.50;2.28;;;24.30;60.30;;;;;;5054835;28;20033;-67
2022/05/20 08:02:11;;;;;;;4.10;2.10;;;24.40;60.20;;;;;;5051115;28;20061;-67
2022/05/20 08:04:53;;;;;;;4.82;2.10;;;24.50;59.90;;;;;;5056093;28;20035;-67
2022/05/20 08:07:21;;;;;;;7.32;2.30;;;24.60;59.40;;;;;;5053566;28;20119;-67
2022/05/20 08:09:47;;;;;;;3.65;2.03;;;24.70;59.50;;;;;;5053374;28;20673;-67
2022/05/20 08:12:13;;;;;;;2.10;1.80;;;24.80;59.00;;;;;;5053784;28;20032;-67
2022/05/20 08:14:39;;;;;;;2.45;1.80;;;24.90;59.00;;;;;;5054220;28;20571;-67
2022/05/20 08:17:06;;;;;;;2.30;2.10;;;25.00;58.40;;;;;;5053454;28;20041;-67
2022/05/20 08:19:32;;;;;;;2.78;1.95;;;25.10;58.10;;;;;;5057082;28;20040;-67
2022/05/20 08:21:58;;;;;;;3.97;1.90;;;25.20;58.40;;;;;;5056869;28;20101;-67
2022/05/20 08:24:24;;;;;;;3.60;2.20;;;25.30;57.90;;;;;;5054480;28;20029;-67
2022/05/20 08:26:51;;;;;;;4.43;1.90;;;25.40;58.00;;;;;;5051187;28;20045;-67
2022/05/20 08:29:18;;;;;;;3.85;2.05;;;25.50;58.00;;;;;;5061453;28;20359;-67
2022/05/20 08:31:45;;;;;;;2.65;2.10;;;25.60;57.70;;;;;;5056546;28;20052;-67
2022/05/20 08:34:11;;;;;;;2.78;2.10;;;25.70;57.40;;;;;;5055043;28;20025;-67
2022/05/20 08:36:38;;;;;;;3.20;2.20;;;25.80;57.40;;;;;;5055967;28;20044;-67
2022/05/20 08:39:05;;;;;;;3.05;2.13;;;25.90;57.10;;;;;;5053208;28;20035;-67
2022/05/20 08:41:53;;;;;;;2.65;2.30;;;26.00;56.50;;;;;;5052660;28;20036;-67
2022/05/20 08:44:21;;;;;;;3.10;2.30;;;26.20;56.10;;;;;;5052027;28;20043;-67
2022/05/20 08:46:48;;;;;;;2.45;1.90;;;26.30;56.70;;;;;;5054007;28;20652;-67
2022/05/20 08:49:24;;;;;;;2.20;2.00;;;26.40;56.60;;;;;;5052045;28;20151;-67
2022/05/20 08:51:52;;;;;;;2.00;1.90;;;26.50;56.30;;;;;;5054144;28;20040;-67
2022/05/20 08:54:19;;;;;;;3.13;2.13;;;26.60;55.50;;;;;;5052267;28;20469;-67
2022/05/20 08:56:46;;;;;;;3.53;1.95;;;26.70;55.50;;;;;;5053888;28;20546;-66
2022/05/20 08:59:17;;;;;;;2.13;1.95;;;26.80;55.30;;;;;;5054361;28;20063;-67
2022/05/20 09:01:46;;;;;;;5.03;2.00;;;26.90;55.10;;;;;;5057081;28;20041;-67
2022/05/20 09:04:15;;;;;;;6.22;2.05;;;27.10;55.20;;;;;;5053442;28;20385;-67
2022/05/20 09:06:57;;;;;;;2.50;2.15;;;27.20;55.00;;;;;;5054130;28;20067;-67
2022/05/20 09:09:38;;;;;;;2.20;2.05;;;27.30;54.50;;;;;;5054743;28;20508;-67
2022/05/20 09:12:04;;;;;;;4.22;1.95;;;27.40;54.50;;;;;;5050769;28;20066;-67
2022/05/20 09:17:24;;;;;;;2.22;2.00;;;27.70;54.50;;;;;;5054369;28;20028;-67
2022/05/20 09:20:04;;;;;;;4.00;2.30;;;27.80;54.20;;;;;;5052052;28;20625;-67
2022/05/20 09:22:35;;;;;;;4.38;2.20;;;27.90;53.50;;;;;;5054798;28;20064;-68
2022/05/20 09:25:02;;;;;;;2.40;2.17;;;28.00;53.20;;;;;;5055830;28;20056;-68
2022/05/20 09:27:30;;;;;;;4.30;2.50;;;28.10;52.90;;;;;;5050691;28;20048;-67
2022/05/20 09:30:05;;;;;;;3.63;2.40;;;28.20;52.40;;;;;;5055862;28;20528;-68
2022/05/20 09:32:36;;;;;;;;;;;28.30;51.80;;;;;;5055243;28;20547;-67
2022/05/20 09:35:17;;;;;;;4.97;2.45;;;28.40;51.80;;;;;;5052990;28;19991;-68
2022/05/20 09:37:43;;;;;;;5.70;2.30;;;28.40;52.60;;;;;;5054828;28;20036;-67
2022/05/20 09:40:24;;;;;;;12.70;2.40;;;28.50;52.60;;;;;;5051293;28;20032;-67
2022/05/20 09:42:57;;;;;;;4.93;2.35;;;28.60;51.60;;;;;;5053444;28;20033;-67
2022/05/20 09:45:23;;;;;;;3.92;2.30;;;28.70;52.10;;;;;;5054160;28;20036;-68
2022/05/20 09:47:57;;;;;;;3.72;2.75;;;28.80;52.10;;;;;;5054151;28;20078;-67
2022/05/20 09:50:38;;;;;;;4.55;2.40;;;28.90;51.30;;;;;;5058211;28;20170;-68
2022/05/20 09:53:35;;;;;;;5.03;2.50;;;29.00;51.10;;;;;;5054514;28;20110;-66
2022/05/20 09:56:18;;;;;;;4.32;2.20;;;29.10;49.70;;;;;;5048699;28;20388;-68
2022/05/20 09:59:19;;;;;;;3.35;2.33;;;29.10;50.00;;;;;;5051366;28;20061;-68
2022/05/20 10:01:56;;;;;;;5.50;2.20;;;29.30;50.30;;;;;;5054957;28;20029;-67
2022/05/20 10:04:36;;;;;;;3.38;2.50;;;29.30;49.70;;;;;;5050365;28;20029;-68
2022/05/20 10:07:06;;;;;;;3.65;2.10;;;29.50;49.90;;;;;;5053284;28;20161;-68
2022/05/20 10:09:35;;;;;;;4.13;2.67;;;29.50;50.10;;;;;;5052214;28;20043;-68
2022/05/20 10:12:08;;;;;;;2.92;2.63;;;29.60;49.80;;;;;;5047801;28;20122;-68
2022/05/20 10:15:25;;;;;;;5.70;2.60;;;29.70;49.60;;;;;;5053017;28;20528;-67
2022/05/20 10:18:15;;;;;;;4.25;2.70;;;29.80;49.00;;;;;;5037764;28;20102;-68
2022/05/20 10:20:40;;;;;;;3.88;3.08;;;29.90;49.30;;;;;;5053775;28;20343;-68
2022/05/20 10:23:12;;;;;;;3.97;2.53;;;29.90;49.10;;;;;;5050151;28;20032;-67
2022/05/20 10:26:03;;;;;;;3.05;2.13;;;30.00;48.70;;;;;;5054062;28;20063;-68
2022/05/20 10:34:17;;;;;;;2.78;2.30;;;30.20;48.50;;;;;;5052939;28;20044;-67
2022/05/20 10:36:53;;;;;;;3.88;2.38;;;30.20;49.30;;;;;;5053774;28;20033;-67
2022/05/20 10:39:56;;;;;;;5.53;2.53;;;30.30;49.30;;;;;;5050229;28;20082;-67
2022/05/20 10:42:58;;;;;;;6.88;2.58;;;30.40;47.90;;;;;;5053901;28;20040;-68
2022/05/20 10:48:35;;;;;;;5.38;2.70;;;30.60;48.20;;;;;;5053240;28;20048;-68
2022/05/20 10:51:25;;;;;;;3.83;2.50;;;30.60;46.10;;;;;;5052382;28;20025;-68
2022/05/20 10:54:06;;;;;;;3.08;2.10;;;30.60;45.70;;;;;;5051717;28;20040;-67
2022/05/20 10:56:50;;;;;;;3.42;1.92;;;30.60;45.30;;;;;;5054114;28;20036;-67
2022/05/20 10:59:34;;;;;;;2.90;2.00;;;30.60;45.10;;;;;;5052421;28;20055;-68
2022/05/20 11:02:24;;;;;;;3.33;2.15;;;30.60;43.70;;;;;;5051745;28;20026;-68
2022/05/20 11:05:12;;;;;;;3.03;2.00;;;30.60;43.30;;;;;;5054036;28;20500;-67
2022/05/20 11:08:10;;;;;;;5.30;2.08;;;30.60;41.90;;;;;;5052128;28;20522;-67
2022/05/20 11:11:02;;;;;;;2.03;1.75;;;30.60;42.20;;;;;;5052116;28;20029;-68
2022/05/20 11:13:51;;;;;;;2.47;1.80;;;30.60;42.00;;;;;;5053556;28;20029;-68
2022/05/20 11:16:25;;;;;;;5.38;1.70;;;30.60;42.70;;;;;;5026966;28;20029;-67
2022/05/20 11:18:56;;;;;;;3.92;1.85;;;30.70;42.80;;;;;;5058825;28;20506;-68
2022/05/20 11:21:25;;;;;;;4.45;1.88;;;30.70;42.40;;;;;;5053624;28;20041;-68
2022/05/20 11:24:18;;;;;;;2.45;1.73;;;30.80;41.70;;;;;;5050275;28;20079;-67
2022/05/20 11:26:50;;;;;;;4.45;1.80;;;30.80;41.20;;;;;;5060203;28;20097;-67
2022/05/20 11:29:59;;;;;;;2.47;1.60;;;30.90;41.00;;;;;;5056164;28;20554;-68
2022/05/20 11:32:51;;;;;;;2.03;1.63;;;30.90;40.10;;;;;;5054059;28;20058;-68
2022/05/20 11:35:38;;;;;;;5.18;1.90;;;31.00;39.90;;;;;;5050050;28;20142;-67
2022/05/20 11:38:22;;;;;;;4.03;1.90;;;31.00;39.20;;;;;;5052898;28;20080;-68
2022/05/20 11:41:25;;;;;;;5.38;1.80;;;31.10;40.20;;;;;;5051443;28;20052;-68
2022/05/20 11:44:14;;;;;;;3.75;1.92;;;31.10;38.00;;;;;;5056773;28;20397;-68
2022/05/20 11:47:01;;;;;;;4.65;1.70;;;31.20;39.80;;;;;;5055545;28;20283;-68
2022/05/20 11:49:34;;;;;;;3.20;1.80;;;31.20;39.50;;;;;;5055304;28;20047;-67
2022/05/20 11:52:20;;;;;;;9.30;1.60;;;31.20;39.20;;;;;;5055641;28;20025;-68
2022/05/20 11:54:56;;;;;;;2.08;1.70;;;31.20;39.10;;;;;;5045391;28;20029;-68
2022/05/20 11:57:29;;;;;;;11.02;2.00;;;31.30;38.80;;;;;;5055318;28;20025;-68
2022/05/20 12:00:14;;;;;;;3.05;1.70;;;31.30;37.70;;;;;;5054355;28;20035;-68
2022/05/20 12:02:48;;;;;;;1.98;1.45;;;31.30;38.20;;;;;;5053720;28;20037;-67
2022/05/20 12:05:17;;;;;;;2.50;1.60;;;31.30;38.70;;;;;;5054366;28;20074;-67
2022/05/20 12:07:43;;;;;;;2.22;1.42;;;31.30;39.30;;;;;;5052934;28;20040;-68
2022/05/20 12:10:31;;;;;;;6.65;2.00;;;31.30;39.00;;;;;;5056061;28;20106;-68
2022/05/20 12:13:16;;;;;;;1.73;1.63;;;31.40;38.70;;;;;;5047476;28;20893;-68
2022/05/20 12:15:46;;;;;;;4.75;1.75;;;31.40;38.90;;;;;;5055843;28;20082;-68
2022/05/20 12:24:11;;;;;;;8.73;2.00;;;31.50;38.70;;;;;;5061733;28;20055;-69
2022/05/20 12:24:12;;;;;;;7.05;2.30;;;31.50;38.40;;;;;;5056521;28;20038;-67
2022/05/20 12:26:40;;;;;;;5.55;1.80;;;31.60;38.60;;;;;;5052989;28;20132;-68
2022/05/20 12:29:45;;;;;;;5.80;1.90;;;31.60;37.50;;;;;;5056990;28;20040;-67
2022/05/20 12:32:17;;;;;;;3.47;1.50;;;31.60;37.80;;;;;;5054150;28;20041;-68
2022/05/20 12:34:52;;;;;;;1.98;1.50;;;31.70;37.70;;;;;;5051340;28;20136;-68
2022/05/20 12:37:43;;;;;;;4.40;1.98;;;31.70;37.90;;;;;;5053359;28;20507;-68
2022/05/20 12:40:19;;;;;;;2.45;1.58;;;31.70;37.50;;;;;;5054088;28;20120;-68
2022/05/20 12:42:55;;;;;;;3.85;1.60;;;31.70;36.70;;;;;;5055143;28;20190;-68
2022/05/20 12:45:23;;;;;;;3.75;1.77;;;31.70;37.20;;;;;;5060495;28;20033;-67
2022/05/20 12:47:48;;;;;;;4.88;1.80;;;31.70;36.70;;;;;;5053874;28;20510;-67
2022/05/20 12:50:15;;;;;;;4.60;1.60;;;31.80;37.70;;;;;;5054051;28;20056;-67
2022/05/20 12:52:48;;;;;;;3.20;1.85;;;31.80;37.30;;;;;;5053407;28;20499;-68
2022/05/20 12:55:33;;;;;;;3.10;1.70;;;31.80;36.60;;;;;;5055645;28;20037;-68
2022/05/20 12:58:01;;;;;;;3.45;1.85;;;31.80;36.60;;;;;;5054089;28;20029;-68
2022/05/20 13:00:41;;;;;;;3.88;1.83;;;31.80;36.80;;;;;;5048212;28;20041;-68
2022/05/20 13:03:18;;;;;;;4.35;1.67;;;31.80;36.60;;;;;;5047349;28;20032;-68
2022/05/20 13:05:53;;;;;;;6.65;1.70;;;31.80;36.20;;;;;;5049726;28;20033;-68
2022/05/20 13:08:26;;;;;;;2.55;1.38;;;31.80;36.10;;;;;;5055502;28;20504;-66
2022/05/20 13:10:51;;;;;;;4.68;1.67;;;31.80;36.90;;;;;;5049446;28;20077;-68
2022/05/20 13:13:20;;;;;;;2.10;1.67;;;31.80;36.60;;;;;;5051892;28;20053;-66
2022/05/20 13:15:46;;;;;;;3.47;1.70;;;31.80;36.40;;;;;;5053444;28;20108;-68
2022/05/20 13:18:25;;;;;;;9.93;2.20;;;31.80;36.70;;;;;;5052645;28;20399;-67
2022/05/20 13:20:54;;;;;;;2.67;1.55;;;31.80;36.30;;;;;;5052217;28;20068;-68
2022/05/20 13:23:26;;;;;;;5.18;1.77;;;31.90;36.00;;;;;;5051074;28;20469;-68
2022/05/20 13:25:52;;;;;;;6.55;2.00;;;31.90;35.40;;;;;;5051120;28;20032;-68
2022/05/20 13:28:30;;;;;;;7.07;1.85;;;31.90;35.70;;;;;;5048381;28;20025;-68
2022/05/20 13:31:08;;;;;;;5.85;2.00;;;31.90;35.50;;;;;;5047314;28;20028;-68
2022/05/20 13:33:36;;;;;;;4.28;1.55;;;31.90;35.10;;;;;;5050095;28;20056;-68
2022/05/20 13:36:05;;;;;;;3.83;1.80;;;32.00;35.50;;;;;;5049802;28;20037;-68
2022/05/20 13:38:34;;;;;;;4.85;1.55;;;32.00;35.40;;;;;;5054705;28;20073;-68
2022/05/20 13:41:00;;;;;;;2.97;1.70;;;32.00;34.60;;;;;;5048468;28;20028;-67
2022/05/20 13:43:33;;;;;;;3.67;1.65;;;32.00;35.70;;;;;;5048501;28;20036;-68
2022/05/20 13:51:42;;;;;;;5.78;1.65;;;32.10;35.40;;;;;;5050514;28;20039;-68
2022/05/20 13:54:11;;;;;;;2.47;1.58;;;32.20;35.70;;;;;;5047099;28;20127;-68